Terminal Aerodrome Forecast
Issued by NWS Twin Cities, MN

Home | Current Version | Previous Version | Graphics & Text | Print | Product List | Glossary On
Versions: 1 2 3 4 5 6 7 8 9 10 11 12 13 14 15 16 17 18 19 20 21
000
FTUS43 KMPX 201234 AAA
TAFEAU
TAF AMD
KEAU 201234Z 2013/2112 VRB02KT 1/2SM FG VV002
     FM201330 VRB02KT 2SM BR BKN003
     FM201430 33008KT P6SM SKC
     FM210100 VRB02KT P6SM SCT250
     FM210800 00000KT 2SM BR SCT250=

USA.gov is the U.S. government's official web portal to all federal, state and local government web resources and services.